createdAt,value
2022-10-02T00:01:47.646Z,102560.88
2022-10-02T00:04:22.698Z,102561.66
2022-10-02T00:06:53.004Z,102554.63
2022-10-02T00:09:30.583Z,102556.34
2022-10-02T00:12:00.480Z,102561.63
2022-10-02T00:14:33.936Z,102557.22
2022-10-02T00:17:03.195Z,102565.06
2022-10-02T00:19:30.703Z,102562.41
2022-10-02T00:22:19.570Z,102564.16
2022-10-02T00:25:02.135Z,102557.97
2022-10-02T00:27:48.956Z,102561.50
2022-10-02T00:30:18.519Z,102555.31
2022-10-02T00:33:18.408Z,102555.25
2022-10-02T00:36:11.773Z,102558.66
2022-10-02T00:38:51.271Z,102558.72
2022-10-02T00:41:55.916Z,102559.50
2022-10-02T00:44:40.966Z,102559.44
2022-10-02T00:47:51.963Z,102566.44
2022-10-02T00:50:53.009Z,102560.28
2022-10-02T00:53:29.266Z,102561.13
2022-10-02T00:56:36.653Z,102558.41
2022-10-02T00:59:26.158Z,102557.47
2022-10-02T01:02:15.576Z,102550.50
2022-10-02T01:04:42.858Z,102559.28
2022-10-02T01:07:11.653Z,102562.78
2022-10-02T01:09:40.589Z,102557.47
2022-10-02T01:12:08.634Z,102561.81
2022-10-02T01:14:41.206Z,102560.03
2022-10-02T01:17:24.278Z,102559.13
2022-10-02T01:19:52.182Z,102560.03
2022-10-02T01:22:30.070Z,102574.03
2022-10-02T01:25:04.546Z,102563.50
2022-10-02T01:27:36.630Z,102556.34
2022-10-02T01:30:14.737Z,102562.50
2022-10-02T01:32:58.836Z,102556.28
2022-10-02T01:35:32.343Z,102550.91
2022-10-02T01:38:06.786Z,102557.06
2022-10-02T01:40:37.891Z,102546.50
2022-10-02T01:43:12.731Z,102557.06
2022-10-02T01:45:57.408Z,102548.19
2022-10-02T01:48:45.573Z,102553.41
2022-10-02T01:51:37.310Z,102554.25
2022-10-02T01:54:45.671Z,102558.59
2022-10-02T01:57:19.146Z,102559.50
2022-10-02T02:00:02.191Z,102558.59
2022-10-02T02:02:44.696Z,102558.59
2022-10-02T02:05:17.751Z,102555.09
2022-10-02T02:08:08.985Z,102550.59
2022-10-02T02:10:46.195Z,102549.59
2022-10-02T02:13:34.751Z,102543.50
2022-10-02T02:16:10.860Z,102553.16
2022-10-02T02:19:04.187Z,102550.44
2022-10-02T02:21:36.238Z,102545.13
2022-10-02T02:24:09.748Z,102546.84
2022-10-02T02:26:38.125Z,102544.16
2022-10-02T02:29:08.905Z,102539.66
2022-10-02T02:31:44.674Z,102544.00
2022-10-02T02:34:18.553Z,102544.84
2022-10-02T02:36:59.112Z,102546.38
2022-10-02T02:39:38.946Z,102551.72
2022-10-02T02:42:08.784Z,102550.75
2022-10-02T02:45:17.711Z,102538.47
2022-10-02T02:48:04.181Z,102535.69
2022-10-02T02:50:54.985Z,102538.13
2022-10-02T02:53:48.449Z,102533.78
2022-10-02T02:56:22.047Z,102535.44
2022-10-02T02:58:55.552Z,102534.41
2022-10-02T03:01:22.870Z,102536.06
2022-10-02T03:03:49.888Z,102524.72
2022-10-02T03:06:17.416Z,102525.59
2022-10-02T03:08:53.186Z,102522.81
2022-10-02T03:11:27.321Z,102527.91
2022-10-02T03:14:13.160Z,102516.66
2022-10-02T03:16:50.541Z,102521.03
2022-10-02T03:19:20.491Z,102524.53
2022-10-02T03:22:44.690Z,102532.38
2022-10-02T03:25:24.412Z,102526.25
2022-10-02T03:28:37.331Z,102535.81
2022-10-02T03:31:09.024Z,102532.28
2022-10-02T03:33:38.665Z,102517.31
2022-10-02T03:36:06.044Z,102517.34
2022-10-02T03:38:34.191Z,102512.78
2022-10-02T03:41:01.385Z,102513.78
2022-10-02T03:43:30.909Z,102511.09
2022-10-02T03:45:58.014Z,102514.53
2022-10-02T03:48:25.421Z,102520.75
2022-10-02T03:50:52.384Z,102508.31
2022-10-02T03:53:29.550Z,102503.13
2022-10-02T03:56:10.055Z,102496.03
2022-10-02T03:58:43.623Z,102499.56
2022-10-02T04:01:28.397Z,102509.22
2022-10-02T04:04:19.141Z,102504.84
2022-10-02T04:06:54.629Z,102495.97
2022-10-02T04:09:44.603Z,102494.22
2022-10-02T04:12:40.509Z,102501.22
2022-10-02T04:15:21.458Z,102494.16
2022-10-02T04:17:58.194Z,102498.53
2022-10-02T04:20:44.127Z,102490.59
2022-10-02T04:23:13.912Z,102498.53
2022-10-02T04:25:47.414Z,102497.66
2022-10-02T04:28:15.592Z,102495.78
2022-10-02T04:30:42.660Z,102502.81
2022-10-02T04:33:15.751Z,102493.94
2022-10-02T04:35:45.678Z,102498.41
2022-10-02T04:38:34.204Z,102492.25
2022-10-02T04:41:10.300Z,102500.22
2022-10-02T04:44:10.949Z,102490.50
2022-10-02T04:46:41.075Z,102488.84
2022-10-02T04:49:26.209Z,102481.75
2022-10-02T04:51:59.207Z,102481.84
2022-10-02T04:54:44.893Z,102469.59
2022-10-02T04:57:44.272Z,102479.19
2022-10-02T05:00:16.373Z,102485.31
2022-10-02T05:03:16.066Z,102480.97
2022-10-02T05:06:13.853Z,102473.97
2022-10-02T05:09:18.260Z,102474.94
2022-10-02T05:11:56.286Z,102472.31
2022-10-02T05:14:32.561Z,102473.97
2022-10-02T05:17:31.182Z,102477.47
2022-10-02T05:20:03.783Z,102479.22
2022-10-02T05:22:30.692Z,102478.50
2022-10-02T05:25:19.479Z,102471.50
2022-10-02T05:28:32.915Z,102474.97
2022-10-02T05:31:31.755Z,102469.72
2022-10-02T05:34:47.233Z,102468.91
2022-10-02T05:37:33.120Z,102477.59
2022-10-02T05:40:25.883Z,102472.41
2022-10-02T05:43:07.237Z,102483.84
2022-10-02T05:45:39.287Z,102485.59
2022-10-02T05:48:25.041Z,102479.34
2022-10-02T05:50:59.887Z,102480.47
2022-10-02T05:53:36.839Z,102485.56
2022-10-02T05:56:38.111Z,102490.03
2022-10-02T05:59:28.589Z,102481.09
2022-10-02T06:01:59.009Z,102489.94
2022-10-02T06:04:32.890Z,102484.25
2022-10-02T06:07:07.099Z,102480.97
2022-10-02T06:10:00.424Z,102480.06
2022-10-02T06:13:08.984Z,102486.00
2022-10-02T06:15:51.681Z,102482.53
2022-10-02T06:18:24.405Z,102479.00
2022-10-02T06:21:09.962Z,102478.63
2022-10-02T06:23:53.789Z,102476.28
2022-10-02T06:26:27.152Z,102472.34
2022-10-02T06:29:04.897Z,102478.41
2022-10-02T06:32:01.846Z,102474.09
2022-10-02T06:34:29.357Z,102469.88
2022-10-02T06:37:05.877Z,102477.47
2022-10-02T06:39:43.404Z,102475.59
2022-10-02T06:42:34.056Z,102470.84
2022-10-02T06:45:36.828Z,102476.41
2022-10-02T06:48:10.136Z,102484.13
2022-10-02T06:51:18.757Z,102490.75
2022-10-02T06:54:27.364Z,102489.59
2022-10-02T06:57:10.978Z,102481.00
2022-10-02T06:59:38.347Z,102481.53
2022-10-02T07:02:46.706Z,102496.44
2022-10-02T07:05:42.930Z,102496.56
2022-10-02T07:08:31.848Z,102502.03
2022-10-02T07:11:17.979Z,102506.69
2022-10-02T07:13:45.063Z,102505.25
2022-10-02T07:16:47.334Z,102508.94
2022-10-02T07:19:48.234Z,102507.56
2022-10-02T07:22:44.108Z,102505.97
2022-10-02T07:25:36.973Z,102511.38
2022-10-02T07:28:15.981Z,102504.50
2022-10-02T07:31:06.140Z,102504.53
2022-10-02T07:34:02.827Z,102509.09
2022-10-02T07:36:38.798Z,102507.56
2022-10-02T07:39:21.761Z,102517.38
2022-10-02T07:42:24.187Z,102524.38
2022-10-02T07:45:34.921Z,102538.28
2022-10-02T07:51:33.009Z,102537.09
2022-10-02T07:54:20.237Z,102534.63
2022-10-02T07:56:50.360Z,102538.28
2022-10-02T07:59:19.050Z,102537.44
2022-10-02T08:01:50.645Z,102533.22
2022-10-02T08:04:37.119Z,102538.00
2022-10-02T08:07:06.766Z,102528.59
2022-10-02T08:09:41.560Z,102527.75
2022-10-02T08:12:26.625Z,102523.66
2022-10-02T08:15:05.740Z,102528.19
2022-10-02T08:18:22.786Z,102520.63
2022-10-02T08:20:50.379Z,102522.50
2022-10-02T08:23:29.794Z,102525.28
2022-10-02T08:26:12.808Z,102526.28
2022-10-02T08:28:46.649Z,102523.66
2022-10-02T08:31:19.208Z,102528.03
2022-10-02T08:33:46.644Z,102526.97
2022-10-02T08:36:38.789Z,102525.19
2022-10-02T08:39:25.035Z,102521.91
2022-10-02T08:42:07.429Z,102524.59
2022-10-02T08:45:11.331Z,102520.16
2022-10-02T08:48:06.571Z,102517.50
2022-10-02T08:51:06.709Z,102514.78
2022-10-02T08:53:54.902Z,102504.22
2022-10-02T08:56:53.215Z,102514.59
2022-10-02T08:59:52.909Z,102513.78
2022-10-02T09:02:38.795Z,102520.09
2022-10-02T09:05:40.413Z,102519.13
2022-10-02T09:08:13.504Z,102513.84
2022-10-02T09:10:55.942Z,102505.66
2022-10-02T09:13:46.604Z,102515.63
2022-10-02T09:16:47.786Z,102510.97
2022-10-02T09:19:32.455Z,102500.13
2022-10-02T09:22:13.678Z,102496.84
2022-10-02T09:25:12.470Z,102495.19
2022-10-02T09:28:13.936Z,102493.31
2022-10-02T09:31:19.555Z,102489.81
2022-10-02T09:34:17.158Z,102487.06
2022-10-02T09:37:33.217Z,102474.06
2022-10-02T09:40:31.721Z,102467.75
2022-10-02T09:43:33.293Z,102464.38
2022-10-02T09:46:48.628Z,102471.28
2022-10-02T09:49:54.481Z,102463.63
2022-10-02T09:53:00.935Z,102467.25
2022-10-02T09:56:06.486Z,102461.50
2022-10-02T09:58:37.764Z,102456.28
2022-10-02T10:01:37.950Z,102447.53
2022-10-02T10:05:05.125Z,102449.59
2022-10-02T10:08:20.132Z,102450.84
2022-10-02T10:11:06.293Z,102442.38
2022-10-02T10:13:58.967Z,102440.88
2022-10-02T10:16:51.655Z,102434.94
2022-10-02T10:19:25.122Z,102421.53
2022-10-02T10:22:01.451Z,102424.28
2022-10-02T10:25:13.597Z,102424.34
2022-10-02T10:28:17.435Z,102416.63
2022-10-02T10:31:12.688Z,102418.31
2022-10-02T10:34:10.383Z,102414.47
2022-10-02T10:37:13.162Z,102402.16
2022-10-02T10:39:58.961Z,102400.09
2022-10-02T10:43:07.396Z,102405.78
2022-10-02T10:46:00.186Z,102404.06
2022-10-02T10:48:33.329Z,102390.88
2022-10-02T10:51:03.594Z,102401.63
2022-10-02T10:53:49.650Z,102387.31
2022-10-02T10:56:37.547Z,102389.75
2022-10-02T10:59:42.834Z,102386.50
2022-10-02T11:02:31.757Z,102389.22
2022-10-02T11:05:13.172Z,102382.81
2022-10-02T11:07:57.104Z,102375.34
2022-10-02T11:11:29.373Z,102373.72
2022-10-02T11:14:31.577Z,102369.00
2022-10-02T11:17:27.221Z,102366.38
2022-10-02T11:20:35.386Z,102366.78
2022-10-02T11:23:11.633Z,102370.00
2022-10-02T11:26:26.825Z,102372.78
2022-10-02T11:29:12.984Z,102362.56
2022-10-02T11:31:44.278Z,102378.56
2022-10-02T11:34:53.235Z,102363.03
2022-10-02T11:37:44.238Z,102365.31
2022-10-02T11:40:36.603Z,102355.50
2022-10-02T11:43:43.791Z,102361.75
2022-10-02T11:46:30.172Z,102352.34
2022-10-02T11:49:08.652Z,102349.56
2022-10-02T11:51:36.815Z,102345.34
2022-10-02T11:54:44.024Z,102336.53
2022-10-02T11:57:22.153Z,102337.63
2022-10-02T12:00:02.911Z,102342.84
2022-10-02T12:02:48.722Z,102339.78
2022-10-02T12:05:36.302Z,102327.47
2022-10-02T12:08:32.227Z,102323.97
2022-10-02T12:11:07.639Z,102317.84
2022-10-02T12:14:01.489Z,102315.34
2022-10-02T12:17:02.488Z,102306.97
2022-10-02T12:20:32.721Z,102320.88
2022-10-02T12:23:38.413Z,102289.75
2022-10-02T12:26:50.482Z,102299.03
2022-10-02T12:29:46.631Z,102295.16
2022-10-02T12:32:32.571Z,102300.31
2022-10-02T12:35:26.607Z,102299.47
2022-10-02T12:38:16.580Z,102288.59
2022-10-02T12:41:08.672Z,102289.75
2022-10-02T12:43:53.493Z,102300.34
2022-10-02T12:46:30.177Z,102282.75
2022-10-02T12:49:20.343Z,102272.78
2022-10-02T12:52:09.817Z,102262.97
2022-10-02T12:55:09.118Z,102248.09
2022-10-02T12:58:04.367Z,102261.97
2022-10-02T13:00:44.482Z,102252.72
2022-10-02T13:03:48.331Z,102261.78
2022-10-02T13:06:42.310Z,102261.13
2022-10-02T13:09:35.506Z,102259.00
2022-10-02T13:12:36.006Z,102258.63
2022-10-02T13:15:06.945Z,102247.63
2022-10-02T13:18:14.848Z,102245.13
2022-10-02T13:20:53.020Z,102239.09
2022-10-02T13:23:46.501Z,102227.91
2022-10-02T13:26:33.130Z,102215.38
2022-10-02T13:29:29.450Z,102217.28
2022-10-02T13:32:09.169Z,102213.06
2022-10-02T13:34:51.968Z,102215.78
2022-10-02T13:37:33.321Z,102208.03
2022-10-02T13:40:20.521Z,102193.25
2022-10-02T13:43:04.753Z,102198.25
2022-10-02T13:46:02.970Z,102193.53
2022-10-02T13:48:55.445Z,102191.69
2022-10-02T13:51:36.370Z,102191.50
2022-10-02T13:54:41.904Z,102180.50
2022-10-02T13:57:33.152Z,102175.00
2022-10-02T14:00:24.089Z,102175.56
2022-10-02T14:03:06.687Z,102176.00
2022-10-02T14:05:45.929Z,102164.22
2022-10-02T14:08:57.956Z,102168.78
2022-10-02T14:11:44.611Z,102163.19
2022-10-02T14:14:52.348Z,102157.13
2022-10-02T14:17:38.710Z,102154.13
2022-10-02T14:20:25.643Z,102162.72
2022-10-02T14:23:16.827Z,102155.28
2022-10-02T14:25:52.957Z,102159.97
2022-10-02T14:28:27.187Z,102160.41
2022-10-02T14:31:17.537Z,102155.72
2022-10-02T14:33:57.965Z,102150.94
2022-10-02T14:37:01.841Z,102154.25
2022-10-02T14:39:38.419Z,102158.81
2022-10-02T14:42:23.529Z,102152.16
2022-10-02T14:45:04.783Z,102145.91
2022-10-02T14:48:00.442Z,102152.56
2022-10-02T14:51:03.607Z,102133.88
2022-10-02T14:53:36.227Z,102155.38
2022-10-02T14:56:31.602Z,102132.00
2022-10-02T14:59:53.544Z,102138.41
2022-10-02T15:02:29.690Z,102142.69
2022-10-02T15:05:17.286Z,102123.72
2022-10-02T15:07:45.913Z,102118.53
2022-10-02T15:10:22.287Z,102119.16
2022-10-02T15:13:01.702Z,102143.69
2022-10-02T15:15:42.542Z,102124.59
2022-10-02T15:18:21.334Z,102126.19
2022-10-02T15:21:00.854Z,102118.38
2022-10-02T15:23:34.721Z,102118.34
2022-10-02T15:26:05.443Z,102114.72
2022-10-02T15:29:12.609Z,102114.88
2022-10-02T15:32:07.889Z,102110.03
2022-10-02T15:35:04.308Z,102109.34
2022-10-02T15:37:43.731Z,102104.25
2022-10-02T15:40:34.163Z,102103.81
2022-10-02T15:43:17.508Z,102109.78
2022-10-02T15:46:03.630Z,102107.72
2022-10-02T15:49:05.056Z,102098.84
2022-10-02T15:51:41.407Z,102111.03
2022-10-02T15:54:34.589Z,102109.06
2022-10-02T15:57:14.006Z,102101.31
2022-10-02T15:59:59.979Z,102101.97
2022-10-02T16:02:39.287Z,102100.59
2022-10-02T16:05:51.687Z,102102.03
2022-10-02T16:08:31.280Z,102101.78
2022-10-02T16:11:12.187Z,102099.06
2022-10-02T16:14:01.728Z,102104.34
2022-10-02T16:16:41.924Z,102102.97
2022-10-02T16:19:47.317Z,102104.69
2022-10-02T16:22:29.831Z,102121.72
2022-10-02T16:25:03.145Z,102115.16
2022-10-02T16:27:49.223Z,102125.69
2022-10-02T16:30:18.960Z,102114.28
2022-10-02T16:33:04.644Z,102116.59
2022-10-02T16:35:43.848Z,102114.59
2022-10-02T16:38:20.713Z,102106.91
2022-10-02T16:40:57.246Z,102112.66
2022-10-02T16:43:46.832Z,102118.13
2022-10-02T16:46:25.993Z,102119.13
2022-10-02T16:48:57.820Z,102126.69
2022-10-02T16:51:52.113Z,102118.31
2022-10-02T16:54:32.937Z,102124.66
2022-10-02T16:57:23.776Z,102134.34
2022-10-02T17:00:15.421Z,102133.66
2022-10-02T17:02:50.609Z,102134.56
2022-10-02T17:05:30.366Z,102125.16
2022-10-02T17:08:37.965Z,102131.09
2022-10-02T17:11:17.384Z,102134.38
2022-10-02T17:14:06.660Z,102137.34
2022-10-02T17:16:53.213Z,102133.44
2022-10-02T17:20:01.736Z,102141.59
2022-10-02T17:22:38.303Z,102143.25
2022-10-02T17:25:27.427Z,102143.59
2022-10-02T17:28:02.198Z,102143.56
2022-10-02T17:30:49.594Z,102146.94
2022-10-02T17:33:22.794Z,102147.25
2022-10-02T17:36:05.409Z,102149.78
2022-10-02T17:38:52.222Z,102153.53
2022-10-02T17:41:47.747Z,102161.44
2022-10-02T17:44:28.933Z,102154.31
2022-10-02T17:47:04.893Z,102156.03
2022-10-02T17:50:09.801Z,102163.16
2022-10-02T17:53:10.862Z,102156.06
2022-10-02T17:56:18.752Z,102155.06
2022-10-02T17:58:56.136Z,102153.47
2022-10-02T18:01:29.316Z,102149.91
2022-10-02T18:04:18.616Z,102152.47
2022-10-02T18:06:49.338Z,102152.34
2022-10-02T18:09:41.155Z,102154.97
2022-10-02T18:12:27.505Z,102152.56
2022-10-02T18:15:51.482Z,102148.25
2022-10-02T18:19:03.267Z,102163.31
2022-10-02T18:21:52.416Z,102154.41
2022-10-02T18:24:55.441Z,102151.66
2022-10-02T18:27:41.779Z,102154.50
2022-10-02T18:30:44.348Z,102147.38
2022-10-02T18:33:40.847Z,102153.53
2022-10-02T18:36:13.305Z,102150.69
2022-10-02T18:39:04.340Z,102156.03
2022-10-02T18:42:01.936Z,102157.06
2022-10-02T18:45:27.547Z,102160.59
2022-10-02T18:48:32.983Z,102157.81
2022-10-02T18:51:28.700Z,102154.25
2022-10-02T18:54:27.005Z,102155.28
2022-10-02T18:57:12.640Z,102159.59
2022-10-02T19:00:05.471Z,102160.66
2022-10-02T19:02:55.280Z,102162.47
2022-10-02T19:06:00.716Z,102159.63
2022-10-02T19:09:14.645Z,102163.28
2022-10-02T19:11:48.961Z,102166.84
2022-10-02T19:14:43.656Z,102167.69
2022-10-02T19:17:39.475Z,102169.44
2022-10-02T19:20:36.766Z,102176.59
2022-10-02T19:23:08.934Z,102179.16
2022-10-02T19:25:37.018Z,102177.38
2022-10-02T19:28:17.896Z,102175.56
2022-10-02T19:31:17.291Z,102179.09
2022-10-02T19:34:03.699Z,102178.16
2022-10-02T19:36:50.508Z,102187.00
2022-10-02T19:39:30.767Z,102185.28
2022-10-02T19:42:04.166Z,102192.47
2022-10-02T19:44:48.403Z,102188.91
2022-10-02T19:47:39.367Z,102183.59
2022-10-02T19:50:28.382Z,102185.34
2022-10-02T19:53:07.260Z,102189.75
2022-10-02T19:55:41.431Z,102189.81
2022-10-02T19:58:32.748Z,102196.06
2022-10-02T20:01:03.288Z,102216.41
2022-10-02T20:03:32.697Z,102214.63
2022-10-02T20:06:19.665Z,102214.53
2022-10-02T20:09:03.611Z,102212.84
2022-10-02T20:11:43.456Z,102214.56
2022-10-02T20:14:26.805Z,102212.78
2022-10-02T20:17:21.981Z,102215.44
2022-10-02T20:20:16.182Z,102211.88
2022-10-02T20:23:03.103Z,102215.38
2022-10-02T20:25:54.122Z,102219.75
2022-10-02T20:28:51.357Z,102225.16
2022-10-02T20:31:39.796Z,102226.91
2022-10-02T20:34:23.975Z,102222.53
2022-10-02T20:37:30.357Z,102225.16
2022-10-02T20:40:12.176Z,102226.91
2022-10-02T20:43:06.538Z,102216.31
2022-10-02T20:45:48.154Z,102226.88
2022-10-02T20:49:06.465Z,102218.91
2022-10-02T20:52:02.339Z,102225.06
2022-10-02T20:54:47.245Z,102216.22
2022-10-02T20:58:00.326Z,102225.94
2022-10-02T21:00:50.136Z,102215.31
2022-10-02T21:03:55.709Z,102221.50
2022-10-02T21:06:54.931Z,102212.66
2022-10-02T21:09:51.230Z,102212.66
2022-10-02T21:12:40.006Z,102207.38
2022-10-02T21:15:27.611Z,102207.38
2022-10-02T21:18:30.289Z,102199.44
2022-10-02T21:21:29.580Z,102204.72
2022-10-02T21:24:21.453Z,102208.31
2022-10-02T21:27:03.829Z,102198.59
2022-10-02T21:29:56.103Z,102202.13
2022-10-02T21:33:03.091Z,102201.28
2022-10-02T21:35:32.247Z,102201.28
2022-10-02T21:37:59.388Z,102206.56
2022-10-02T21:40:32.895Z,102206.56
2022-10-02T21:43:06.950Z,102202.19
2022-10-02T21:45:53.137Z,102197.78
2022-10-02T21:48:35.348Z,102202.19
2022-10-02T21:51:28.047Z,102202.22
2022-10-02T21:54:18.864Z,102211.00
2022-10-02T21:57:19.611Z,102208.38
2022-10-02T22:00:11.727Z,102198.66
2022-10-02T22:03:07.244Z,102204.00
2022-10-02T22:05:49.020Z,102199.59
2022-10-02T22:08:31.649Z,102195.19
2022-10-02T22:11:09.891Z,102196.97
2022-10-02T22:13:39.472Z,102199.59
2022-10-02T22:16:24.474Z,102194.31
2022-10-02T22:19:10.241Z,102206.66
2022-10-02T22:21:52.303Z,102200.50
2022-10-02T22:24:36.668Z,102204.03
2022-10-02T22:27:43.531Z,102197.88
2022-10-02T22:30:34.529Z,102202.25
2022-10-02T22:33:13.559Z,102204.91
2022-10-02T22:35:46.360Z,102204.91
2022-10-02T22:38:16.784Z,102213.75
2022-10-02T22:40:51.751Z,102207.56
2022-10-02T22:43:36.148Z,102204.91
2022-10-02T22:46:30.319Z,102202.28
2022-10-02T22:49:02.463Z,102199.63
2022-10-02T22:51:44.322Z,102195.22
2022-10-02T22:54:11.489Z,102189.91
2022-10-02T22:56:45.481Z,102191.69
2022-10-02T22:59:18.893Z,102189.94
2022-10-02T23:02:06.834Z,102202.28
2022-10-02T23:05:10.002Z,102195.25
2022-10-02T23:07:55.774Z,102192.63
2022-10-02T23:10:35.809Z,102197.03
2022-10-02T23:13:15.905Z,102190.84
2022-10-02T23:16:09.932Z,102190.81
2022-10-02T23:18:50.801Z,102182.91
2022-10-02T23:21:28.987Z,102192.63
2022-10-02T23:24:17.587Z,102193.50
2022-10-02T23:27:03.025Z,102186.44
2022-10-02T23:29:46.002Z,102192.59
2022-10-02T23:32:43.825Z,102198.78
2022-10-02T23:35:14.843Z,102201.44
2022-10-02T23:37:48.100Z,102195.28
2022-10-02T23:40:31.212Z,102194.41
2022-10-02T23:43:03.435Z,102204.06
2022-10-02T23:45:40.374Z,102197.03
2022-10-02T23:48:15.111Z,102195.25
2022-10-02T23:51:02.292Z,102192.63
2022-10-02T23:53:32.293Z,102188.19
2022-10-02T23:56:28.070Z,102186.44
